createdAt,value
2023-05-22T00:03:48.391Z,27.20
2023-05-22T00:08:53.732Z,27.48
2023-05-22T00:13:58.951Z,26.73
2023-05-22T00:19:05.110Z,28.70
2023-05-22T00:24:11.659Z,28.13
2023-05-22T00:29:16.832Z,27.10
2023-05-22T00:34:22.403Z,28.90
2023-05-22T00:39:27.765Z,31.88
2023-05-22T00:49:38.190Z,28.15
2023-05-22T00:54:43.822Z,33.13
2023-05-22T00:59:49.001Z,35.80
2023-05-22T01:04:58.211Z,31.83
2023-05-22T01:10:03.754Z,47.72
2023-05-22T01:15:28.286Z,27.55
2023-05-22T01:20:59.540Z,36.90
2023-05-22T01:26:23.653Z,50.88
2023-05-22T01:31:32.407Z,36.70
2023-05-22T01:36:39.973Z,38.85
2023-05-22T01:41:45.475Z,40.45
2023-05-22T01:46:50.801Z,33.63
2023-05-22T01:57:28.290Z,41.67
2023-05-22T02:02:37.849Z,50.22
2023-05-22T02:07:45.222Z,40.92
2023-05-22T02:12:50.921Z,40.88
2023-05-22T02:17:56.083Z,38.95
2023-05-22T02:28:07.824Z,39.78
2023-05-22T02:33:13.271Z,39.60
2023-05-22T02:38:18.582Z,31.67
2023-05-22T02:43:23.982Z,38.67
2023-05-22T02:48:30.700Z,30.90
2023-05-22T02:53:36.875Z,48.78
2023-05-22T02:58:42.124Z,48.85
2023-05-22T03:08:52.624Z,46.60
2023-05-22T03:13:58.315Z,42.70
2023-05-22T03:19:14.644Z,34.42
2023-05-22T03:24:20.425Z,36.10
2023-05-22T03:29:25.972Z,40.35
2023-05-22T03:34:33.611Z,39.83
2023-05-22T03:39:41.018Z,49.50
2023-05-22T03:45:08.345Z,33.17
2023-05-22T03:50:15.034Z,38.28
2023-05-22T04:00:26.910Z,49.37
2023-05-22T04:05:33.316Z,40.03
2023-05-22T04:10:40.462Z,43.03
2023-05-22T04:15:48.448Z,45.28
2023-05-22T04:20:54.048Z,46.92
2023-05-22T04:25:59.681Z,46.25
2023-05-22T04:31:07.743Z,49.15
2023-05-22T04:36:14.446Z,45.78
2023-05-22T04:41:21.813Z,47.63
2023-05-22T04:46:30.204Z,46.80
2023-05-22T04:51:36.331Z,46.60
2023-05-22T04:56:44.756Z,45.17
2023-05-22T05:01:51.916Z,37.85
2023-05-22T05:06:58.957Z,38.40
2023-05-22T05:12:05.062Z,43.10
2023-05-22T05:17:10.472Z,43.00
2023-05-22T05:22:17.534Z,42.38
2023-05-22T05:27:22.736Z,41.67
2023-05-22T05:32:29.611Z,41.47
2023-05-22T05:37:54.769Z,38.97
2023-05-22T05:43:01.950Z,39.95
2023-05-22T05:48:08.118Z,40.00
2023-05-22T05:53:17.928Z,38.92
2023-05-22T05:58:32.845Z,35.77
2023-05-22T06:04:08.360Z,33.92
2023-05-22T06:09:15.558Z,36.17
2023-05-22T06:14:47.032Z,32.10
2023-05-22T06:19:52.903Z,31.48
2023-05-22T06:24:59.163Z,35.03
2023-05-22T06:30:39.011Z,30.70
2023-05-22T06:35:51.135Z,33.55
2023-05-22T06:40:59.473Z,34.75
2023-05-22T06:46:05.403Z,32.90
2023-05-22T06:51:22.039Z,33.83
2023-05-22T06:56:30.255Z,33.67
2023-05-22T07:01:41.637Z,31.60
2023-05-22T07:06:54.927Z,34.15
2023-05-22T07:12:01.670Z,27.80
2023-05-22T07:17:08.073Z,33.63
2023-05-22T07:22:19.019Z,30.20
2023-05-22T07:27:42.495Z,27.45
2023-05-22T07:32:50.942Z,34.47
2023-05-22T07:37:58.601Z,33.53
2023-05-22T07:43:04.360Z,33.15
2023-05-22T07:48:09.810Z,34.78
2023-05-22T07:53:15.725Z,34.13
2023-05-22T07:58:22.779Z,28.85
2023-05-22T08:03:29.087Z,31.13
2023-05-22T08:08:35.297Z,24.55
2023-05-22T08:13:40.934Z,30.70
2023-05-22T08:18:46.496Z,27.40
2023-05-22T08:23:52.391Z,30.55
2023-05-22T08:28:58.281Z,30.40
2023-05-22T08:34:04.519Z,27.98
2023-05-22T08:39:12.441Z,29.65
2023-05-22T08:44:17.992Z,28.38
2023-05-22T08:49:25.131Z,27.98
2023-05-22T08:54:31.646Z,27.67
2023-05-22T08:59:42.957Z,28.63
2023-05-22T09:04:48.471Z,27.02
2023-05-22T09:10:04.271Z,28.50
2023-05-22T09:15:18.737Z,28.77
2023-05-22T09:20:24.167Z,27.92
2023-05-22T09:25:30.993Z,28.00
2023-05-22T09:30:39.847Z,28.33
2023-05-22T09:35:47.198Z,29.85
2023-05-22T09:40:56.401Z,28.40
2023-05-22T09:46:08.319Z,13.82
2023-05-22T09:51:14.557Z,28.98
2023-05-22T09:56:31.239Z,32.25
2023-05-22T10:01:44.738Z,29.30
2023-05-22T10:06:54.882Z,29.58
2023-05-22T10:12:07.475Z,30.35
2023-05-22T10:17:13.865Z,30.92
2023-05-22T10:22:22.331Z,31.15
2023-05-22T10:27:27.974Z,30.95
2023-05-22T10:32:43.087Z,31.52
2023-05-22T10:38:09.783Z,33.28
2023-05-22T10:43:15.530Z,34.67
2023-05-22T10:48:24.644Z,30.25
2023-05-22T10:53:33.565Z,31.17
2023-05-22T10:58:39.075Z,33.72
2023-05-22T11:03:56.351Z,36.67
2023-05-22T11:09:02.424Z,33.72
2023-05-22T11:14:07.756Z,38.78
2023-05-22T11:24:21.642Z,44.55
2023-05-22T11:29:27.069Z,39.40
2023-05-22T11:34:32.527Z,39.45
2023-05-22T11:39:38.106Z,53.78
2023-05-22T11:44:43.952Z,38.55
2023-05-22T11:49:49.604Z,45.00
2023-05-22T11:54:55.064Z,44.70
2023-05-22T12:00:12.202Z,48.72
2023-05-22T12:05:18.118Z,38.53
2023-05-22T12:10:28.158Z,43.97
2023-05-22T12:15:33.263Z,42.13
2023-05-22T12:20:43.271Z,47.47
2023-05-22T12:26:52.994Z,48.45
2023-05-22T12:32:08.968Z,46.30
2023-05-22T12:37:29.619Z,47.85
2023-05-22T12:42:35.011Z,45.53
2023-05-22T12:47:40.728Z,44.72
2023-05-22T12:52:46.215Z,43.10
2023-05-22T12:57:51.298Z,42.55
2023-05-22T13:02:56.934Z,35.25
2023-05-22T13:08:02.774Z,39.15
2023-05-22T13:13:08.188Z,41.05
2023-05-22T13:18:14.426Z,44.80
2023-05-22T13:23:20.150Z,41.22
2023-05-22T13:28:25.811Z,40.38
2023-05-22T13:33:31.415Z,45.38
2023-05-22T13:38:36.892Z,43.30
2023-05-22T13:43:42.306Z,39.78
2023-05-22T13:48:47.656Z,43.13
2023-05-22T13:53:53.355Z,36.25
2023-05-22T13:58:58.897Z,42.65
2023-05-22T14:04:04.711Z,42.00
2023-05-22T14:09:11.001Z,44.05
2023-05-22T14:14:16.624Z,38.58
2023-05-22T14:19:26.124Z,42.33
2023-05-22T14:24:34.707Z,39.28
2023-05-22T14:29:42.762Z,45.03
2023-05-22T14:34:48.343Z,45.78
2023-05-22T14:39:56.282Z,44.78
2023-05-22T14:45:01.462Z,46.35
2023-05-22T14:55:21.073Z,41.60
2023-05-22T15:00:26.353Z,47.35
2023-05-22T15:05:33.431Z,44.72
2023-05-22T15:10:39.314Z,41.40
2023-05-22T15:15:44.722Z,45.42
2023-05-22T15:20:50.257Z,44.35
2023-05-22T15:25:56.224Z,50.85
2023-05-22T15:31:01.940Z,47.80
2023-05-22T15:36:07.859Z,46.38
2023-05-22T15:41:13.253Z,43.95
2023-05-22T15:46:18.919Z,44.80
2023-05-22T15:51:24.261Z,45.20
2023-05-22T15:56:29.873Z,40.65
2023-05-22T16:01:35.473Z,46.45
2023-05-22T16:06:40.487Z,43.88
2023-05-22T16:16:50.830Z,43.90
2023-05-22T16:28:39.013Z,42.90
2023-05-22T16:33:44.799Z,40.17
2023-05-22T16:38:49.964Z,39.25
2023-05-22T16:49:00.636Z,38.65
2023-05-22T16:59:10.433Z,36.50
2023-05-22T17:09:23.582Z,38.70
2023-05-22T17:14:28.972Z,37.97
2023-05-22T17:19:34.380Z,37.58
2023-05-22T17:24:39.789Z,34.72
2023-05-22T17:29:44.949Z,38.22
2023-05-22T17:34:50.337Z,35.03
2023-05-22T17:39:55.778Z,34.22
2023-05-22T17:45:01.177Z,32.50
2023-05-22T17:50:06.767Z,31.48
2023-05-22T17:55:12.643Z,25.75
2023-05-22T18:00:19.393Z,28.95
2023-05-22T18:05:24.542Z,28.33
2023-05-22T18:10:29.686Z,28.10
2023-05-22T18:20:40.409Z,29.13
2023-05-22T18:25:46.220Z,29.67
2023-05-22T18:30:53.846Z,33.63
2023-05-22T18:36:01.564Z,31.33
2023-05-22T18:41:07.962Z,30.67
2023-05-22T18:46:13.099Z,29.83
2023-05-22T18:56:23.694Z,28.67
2023-05-22T19:01:29.104Z,29.38
2023-05-22T19:06:34.815Z,31.40
2023-05-22T19:11:40.482Z,32.35
2023-05-22T19:16:45.594Z,27.48
2023-05-22T19:26:55.824Z,24.17
2023-05-22T19:32:00.873Z,28.48
2023-05-22T19:37:05.908Z,28.35
2023-05-22T19:42:12.135Z,27.52
2023-05-22T19:47:21.754Z,25.27
2023-05-22T19:52:29.722Z,27.83
2023-05-22T19:57:35.085Z,26.00
2023-05-22T20:02:43.889Z,27.65
2023-05-22T20:07:50.024Z,27.05
2023-05-22T20:12:56.575Z,23.98
2023-05-22T20:18:03.918Z,28.95
2023-05-22T20:23:09.555Z,27.77
2023-05-22T20:28:14.562Z,25.20
2023-05-22T20:38:25.642Z,27.05
2023-05-22T20:43:33.708Z,26.83
2023-05-22T20:48:39.402Z,26.52
2023-05-22T20:53:45.066Z,26.10
2023-05-22T20:58:50.039Z,27.08
2023-05-22T21:03:57.772Z,27.17
2023-05-22T21:09:03.119Z,24.52
2023-05-22T21:14:08.515Z,28.48
2023-05-22T21:19:13.874Z,27.45
2023-05-22T21:24:19.143Z,27.00
2023-05-22T21:29:24.482Z,26.02
2023-05-22T21:34:29.745Z,25.40
2023-05-22T21:44:39.864Z,25.33
2023-05-22T21:49:45.242Z,27.10
2023-05-22T21:54:50.635Z,24.25
2023-05-22T21:59:56.415Z,26.17
2023-05-22T22:05:01.869Z,29.55
2023-05-22T22:10:07.601Z,28.27
2023-05-22T22:15:14.500Z,25.85
2023-05-22T22:20:24.695Z,26.15
2023-05-22T22:25:35.533Z,28.33
2023-05-22T22:30:40.950Z,29.30
2023-05-22T22:35:47.318Z,27.63
2023-05-22T22:40:52.291Z,25.85
2023-05-22T22:51:03.790Z,26.02
2023-05-22T22:56:09.139Z,26.35
2023-05-22T23:01:14.453Z,27.63
2023-05-22T23:06:19.860Z,25.48
2023-05-22T23:11:25.535Z,25.65
2023-05-22T23:16:31.871Z,25.17
2023-05-22T23:21:37.386Z,26.15
2023-05-22T23:26:42.960Z,27.33
2023-05-22T23:31:48.896Z,25.60
2023-05-22T23:36:54.323Z,26.98
2023-05-22T23:42:03.439Z,25.90
2023-05-22T23:47:08.999Z,26.13
2023-05-22T23:52:15.271Z,25.80
2023-05-22T23:57:20.956Z,27.60
